Time;durP1;ratioP1;P1;durP2;ratioP2;P2;SDS_P1;SDS_P2;PMS_P1;PMS_P2;Temp;Humidity;BMP_temperature;BMP_pressure;BME280_temperature;BME280_humidity;BME280_pressure;Samples;Min_cycle;Max_cycle;Signal;HPM_P1;HPM_P2
2023/07/20 00:01:32;;;;;;;6.00;5.55;;;;;;;16.01;100.00;100815.25;6110223;23;20044;-68
2023/07/20 00:03:59;;;;;;;5.53;5.20;;;;;;;16.33;100.00;100863.19;6113587;23;20030;-68
2023/07/20 00:06:27;;;;;;;6.82;6.30;;;;;;;16.14;100.00;100846.00;6082535;23;20043;-68
2023/07/20 00:08:58;;;;;;;6.15;5.65;;;;;;;16.35;99.54;100853.31;6096813;23;20022;-68
2023/07/20 00:11:27;;;;;;;6.40;6.00;;;;;;;15.94;99.98;100802.47;6062623;23;20029;-67
2023/07/20 00:13:53;;;;;;;6.72;5.78;;;;;;;16.27;100.00;100858.34;6117784;23;20019;-67
2023/07/20 00:16:20;;;;;;;5.75;5.45;;;;;;;16.21;100.00;100853.50;6112928;23;20119;-67
2023/07/20 00:18:47;;;;;;;6.20;5.78;;;;;;;16.06;100.00;100850.19;6109226;23;20754;-67
2023/07/20 00:21:13;;;;;;;6.47;5.97;;;;;;;15.63;100.00;100800.31;6105372;23;20082;-67
2023/07/20 00:23:40;;;;;;;6.40;5.90;;;;;;;15.98;100.00;100865.78;6112992;23;20025;-67
2023/07/20 00:26:06;;;;;;;5.88;5.50;;;;;;;15.63;100.00;100822.31;6109269;23;20006;-67
2023/07/20 00:28:33;;;;;;;5.72;5.43;;;;;;;15.88;100.00;100871.72;6112542;23;20160;-67
2023/07/20 00:31:00;;;;;;;5.97;5.43;;;;;;;15.81;100.00;100883.69;6114165;23;20018;-68
2023/07/20 00:33:26;;;;;;;5.93;5.63;;;;;;;15.78;100.00;100883.09;6086974;23;20049;-67
2023/07/20 00:35:53;;;;;;;6.05;5.55;;;;;;;15.76;100.00;100896.41;6086683;23;20037;-67
2023/07/20 00:38:20;;;;;;;5.95;5.57;;;;;;;15.25;100.00;100809.16;6112336;23;20101;-67
2023/07/20 00:40:48;;;;;;;6.10;5.60;;;;;;;15.80;100.00;100884.66;6111963;23;20036;-66
2023/07/20 00:43:15;;;;;;;5.85;5.45;;;;;;;15.77;100.00;100884.88;6112460;23;20013;-67
2023/07/20 00:45:43;;;;;;;5.80;5.50;;;;;;;15.85;100.00;100889.63;6108282;23;20021;-67
2023/07/20 00:48:09;;;;;;;6.03;5.63;;;;;;;15.72;100.00;100863.16;6064693;23;20090;-67
2023/07/20 00:50:36;;;;;;;6.13;5.70;;;;;;;15.64;100.00;100853.13;6093724;23;20067;-67
2023/07/20 00:53:05;;;;;;;6.18;5.68;;;;;;;15.80;100.00;100854.72;6083743;23;20029;-67
2023/07/20 00:55:31;;;;;;;7.30;5.90;;;;;;;16.07;100.00;100888.91;6104848;23;20036;-67
2023/07/20 00:57:59;;;;;;;6.65;6.10;;;;;;;16.11;100.00;100893.88;6110582;23;20263;-67
2023/07/20 01:00:26;;;;;;;6.18;5.78;;;;;;;15.86;100.00;100836.59;6083520;23;20038;-69
2023/07/20 01:02:52;;;;;;;5.95;5.55;;;;;;;15.92;100.00;100856.47;6112186;23;20044;-68
2023/07/20 01:05:19;;;;;;;5.93;5.43;;;;;;;16.10;100.00;100878.97;6103253;23;20397;-67
2023/07/20 01:08:02;;;;;;;7.55;5.88;;;;;;;15.54;100.00;100802.66;6107367;23;20042;-67
2023/07/20 01:10:38;;;;;;;6.15;5.75;;;;;;;16.13;100.00;100888.47;6108572;23;20035;-67
2023/07/20 01:13:07;;;;;;;5.90;5.50;;;;;;;16.13;100.00;100884.00;6080760;23;20753;-67
2023/07/20 01:15:36;;;;;;;12.43;6.55;;;;;;;15.72;100.00;100821.69;6116120;23;20079;-67
2023/07/20 01:18:04;;;;;;;6.30;5.80;;;;;;;16.05;100.00;100864.34;6109842;23;20028;-67
2023/07/20 01:20:33;;;;;;;6.32;5.82;;;;;;;16.12;100.00;100886.78;6118279;23;20097;-67
2023/07/20 01:23:08;;;;;;;5.55;5.25;;;;;;;16.11;100.00;100904.47;6080302;23;20021;-67
2023/07/20 01:25:44;;;;;;;5.95;5.55;;;;;;;16.08;100.00;100912.66;6111187;23;20078;-67
2023/07/20 01:28:32;;;;;;;5.78;5.38;;;;;;;16.03;100.00;100925.34;6086088;23;20026;-67
2023/07/20 01:31:10;;;;;;;7.72;7.20;;;;;;;16.03;100.00;100927.16;6108715;23;21105;-67
2023/07/20 01:33:38;;;;;;;6.50;5.95;;;;;;;15.36;100.00;100817.19;6112067;23;20032;-67
2023/07/20 01:36:05;;;;;;;6.00;5.60;;;;;;;16.02;100.00;100918.38;6106966;23;20022;-66
2023/07/20 01:38:31;;;;;;;6.35;5.82;;;;;;;15.99;100.00;100915.94;6079140;23;20036;-67
2023/07/20 01:40:58;;;;;;;6.82;5.72;;;;;;;15.93;100.00;100908.44;6108742;23;20024;-67
2023/07/20 01:43:25;;;;;;;6.55;6.05;;;;;;;15.62;100.00;100860.31;6080047;23;20037;-66
2023/07/20 01:45:51;;;;;;;6.45;6.05;;;;;;;15.96;100.00;100913.53;6111835;23;20546;-67
2023/07/20 01:48:18;;;;;;;6.03;5.43;;;;;;;15.65;100.00;100870.66;6085803;23;20101;-67
2023/07/20 01:50:44;;;;;;;6.15;5.80;;;;;;;15.77;100.00;100902.53;6114998;23;20134;-66
2023/07/20 01:53:11;;;;;;;6.38;5.82;;;;;;;15.49;100.00;100880.63;6107625;23;20029;-66
2023/07/20 01:55:37;;;;;;;6.20;5.70;;;;;;;15.54;100.00;100908.47;6112921;23;20018;-66
2023/07/20 01:58:04;;;;;;;6.28;5.88;;;;;;;15.49;100.00;100907.09;6083816;23;20030;-66
2023/07/20 02:00:31;;;;;;;6.43;5.93;;;;;;;15.38;100.00;100909.66;6118182;23;20029;-66
2023/07/20 02:02:57;;;;;;;6.55;5.80;;;;;;;15.32;100.00;100908.28;6115785;23;20376;-67
2023/07/20 02:05:24;;;;;;;5.97;5.57;;;;;;;14.79;100.00;100838.75;6115000;23;20028;-66
2023/07/20 02:07:51;;;;;;;5.82;5.43;;;;;;;15.12;100.00;100909.63;6114869;23;20020;-67
2023/07/20 02:10:17;;;;;;;6.00;5.60;;;;;;;15.06;100.00;100902.97;6085791;23;20060;-67
2023/07/20 02:12:43;;;;;;;7.60;5.72;;;;;;;15.02;100.00;100914.69;6088903;23;20511;-66
2023/07/20 02:15:10;;;;;;;6.10;5.70;;;;;;;14.80;100.00;100891.50;6116949;23;20033;-67
2023/07/20 02:17:37;;;;;;;6.25;5.85;;;;;;;14.91;100.00;100903.97;6090831;23;20051;-67
2023/07/20 02:20:04;;;;;;;6.18;5.72;;;;;;;14.58;100.00;100865.66;6118115;23;20395;-67
2023/07/20 02:22:30;;;;;;;5.90;5.55;;;;;;;14.74;100.00;100902.47;6114073;23;20077;-66
2023/07/20 02:24:57;;;;;;;6.20;5.80;;;;;;;14.75;100.00;100915.59;6110018;23;20025;-67
2023/07/20 02:27:23;;;;;;;5.90;5.50;;;;;;;14.70;100.00;100906.28;6113411;23;20035;-66
2023/07/20 02:29:50;;;;;;;6.10;5.70;;;;;;;14.36;100.00;100861.75;6115958;23;20087;-69
2023/07/20 02:32:16;;;;;;;6.40;5.93;;;;;;;14.24;100.00;100841.44;6113197;23;20021;-67
2023/07/20 02:34:45;;;;;;;6.30;5.80;;;;;;;14.66;100.00;100904.78;6112819;23;20037;-67
2023/07/20 02:37:12;;;;;;;6.57;5.78;;;;;;;14.76;100.00;100925.19;6105476;23;20042;-67
2023/07/20 02:39:39;;;;;;;6.30;5.90;;;;;;;14.80;100.00;100931.13;6117049;23;20029;-67
2023/07/20 02:42:06;;;;;;;6.43;5.90;;;;;;;14.40;100.00;100849.22;6116669;23;20028;-67
2023/07/20 02:44:32;;;;;;;6.63;6.20;;;;;;;14.86;100.00;100908.75;6087784;23;20653;-67
2023/07/20 02:46:59;;;;;;;6.45;5.95;;;;;;;14.94;100.00;100919.66;6111133;23;20044;-67
2023/07/20 02:49:26;;;;;;;6.55;6.10;;;;;;;14.32;100.00;100828.59;6117516;23;20025;-67
2023/07/20 02:51:53;;;;;;;6.82;6.22;;;;;;;14.94;100.00;100927.56;6078437;23;20025;-69
2023/07/20 02:54:21;;;;;;;5.88;5.47;;;;;;;14.71;100.00;100885.03;6114174;23;20191;-68
2023/07/20 02:56:48;;;;;;;6.10;5.72;;;;;;;14.87;100.00;100919.19;6058427;23;20257;-67
2023/07/20 02:59:14;;;;;;;5.95;5.45;;;;;;;14.82;100.00;100923.13;6113851;23;20028;-67
2023/07/20 03:01:42;;;;;;;6.32;5.93;;;;;;;14.34;100.00;100855.72;6109240;23;20020;-67
2023/07/20 03:04:10;;;;;;;6.10;5.63;;;;;;;14.51;100.00;100898.66;6110309;23;20035;-67
2023/07/20 03:06:37;;;;;;;6.25;5.82;;;;;;;14.64;100.00;100936.56;6111769;23;20017;-67
2023/07/20 03:09:04;;;;;;;6.05;5.65;;;;;;;13.98;100.00;100834.38;6096094;23;20053;-66
2023/07/20 03:11:32;;;;;;;6.25;5.85;;;;;;;14.26;100.00;100896.78;6105332;23;20029;-67
2023/07/20 03:13:59;;;;;;;6.03;5.63;;;;;;;14.33;100.00;100906.00;6113670;23;20025;-66
2023/07/20 03:16:26;;;;;;;6.72;6.13;;;;;;;14.55;100.00;100947.69;6114418;23;20106;-67
2023/07/20 03:18:53;;;;;;;8.43;5.90;;;;;;;14.41;100.00;100913.41;6112272;23;20018;-67
2023/07/20 03:21:19;;;;;;;6.65;6.15;;;;;;;14.57;100.00;100951.13;6085289;23;20081;-69
2023/07/20 03:23:45;;;;;;;6.40;5.90;;;;;;;14.58;100.00;100944.91;6112786;23;20776;-67
2023/07/20 03:26:12;;;;;;;6.35;5.78;;;;;;;14.30;100.00;100899.13;6086003;23;20014;-67
2023/07/20 03:28:38;;;;;;;6.93;6.40;;;;;;;14.73;100.00;100949.19;6112215;23;20025;-67
2023/07/20 03:31:05;;;;;;;6.65;6.15;;;;;;;14.80;100.00;100954.06;6078412;23;20089;-67
2023/07/20 03:33:33;;;;;;;5.95;5.55;;;;;;;14.53;100.00;100905.56;6112526;23;20044;-67
2023/07/20 03:36:00;;;;;;;6.57;5.72;;;;;;;14.90;100.00;100957.78;6112520;23;20556;-67
2023/07/20 03:38:29;;;;;;;6.78;6.22;;;;;;;14.89;100.00;100956.97;6114184;23;20053;-67
2023/07/20 03:40:57;;;;;;;7.05;6.25;;;;;;;15.02;100.00;100964.06;6114852;23;20021;-67
2023/07/20 03:43:25;;;;;;;6.53;5.78;;;;;;;14.63;100.00;100900.53;6114522;23;20041;-67
2023/07/20 03:45:52;;;;;;;6.10;5.70;;;;;;;14.78;100.00;100903.97;6109772;23;20392;-68
2023/07/20 03:48:22;;;;;;;8.07;5.95;;;;;;;15.24;100.00;100958.19;6113633;23;20096;-67
2023/07/20 03:50:51;;;;;;;5.90;5.50;;;;;;;15.26;100.00;100951.00;6110475;23;20072;-68
2023/07/20 03:53:17;;;;;;;6.10;5.60;;;;;;;15.30;100.00;100953.31;6112479;23;20446;-67
2023/07/20 03:55:46;;;;;;;8.73;6.15;;;;;;;15.16;100.00;100932.25;6082745;23;20128;-67
2023/07/20 03:58:13;;;;;;;5.97;5.57;;;;;;;15.32;100.00;100951.41;6113427;23;20025;-68
2023/07/20 04:00:43;;;;;;;6.13;5.72;;;;;;;15.34;100.00;100951.31;6112730;23;20048;-68
2023/07/20 04:03:09;;;;;;;6.20;5.80;;;;;;;15.34;100.00;100946.88;6105140;23;20009;-68
2023/07/20 04:05:36;;;;;;;6.72;6.15;;;;;;;14.98;100.00;100886.78;6108882;23;20029;-68
2023/07/20 04:08:02;;;;;;;6.00;5.60;;;;;;;14.78;100.00;100868.78;6112255;23;20330;-68
2023/07/20 04:10:29;;;;;;;6.28;5.82;;;;;;;15.03;100.00;100926.94;6115087;23;20080;-67
2023/07/20 04:12:56;;;;;;;7.10;6.50;;;;;;;15.37;100.00;100961.66;6110323;23;20025;-67
2023/07/20 04:15:22;;;;;;;5.75;5.43;;;;;;;15.44;100.00;100962.13;6118077;23;20033;-68
2023/07/20 04:17:49;;;;;;;6.30;5.90;;;;;;;15.59;100.00;100968.16;6108326;23;20018;-68
2023/07/20 04:20:17;;;;;;;6.20;5.80;;;;;;;15.32;100.00;100916.19;6115363;23;20034;-68
2023/07/20 04:22:44;;;;;;;6.85;6.15;;;;;;;15.58;100.00;100966.47;6110298;23;20044;-68
2023/07/20 04:25:10;;;;;;;6.07;5.68;;;;;;;15.50;100.00;100959.88;6116328;23;20027;-67
2023/07/20 04:27:37;;;;;;;6.35;5.88;;;;;;;15.47;100.00;100962.72;6114121;23;20029;-68
2023/07/20 04:30:03;;;;;;;5.53;5.18;;;;;;;15.43;100.00;100950.66;6112912;23;20027;-68
2023/07/20 04:32:33;;;;;;;6.20;5.80;;;;;;;15.31;100.00;100943.59;6109943;23;20048;-68
2023/07/20 04:35:01;;;;;;;5.88;5.47;;;;;;;15.28;100.00;100920.00;6108957;23;20088;-68
2023/07/20 04:37:27;;;;;;;6.10;5.70;;;;;;;15.65;100.00;100981.78;6082347;23;20107;-68
2023/07/20 04:39:54;;;;;;;6.18;5.60;;;;;;;15.67;100.00;100965.81;6108648;23;20116;-68
2023/07/20 04:42:20;;;;;;;6.72;6.13;;;;;;;14.76;100.00;100845.94;6114470;23;20439;-68
2023/07/20 04:44:47;;;;;;;6.30;5.90;;;;;;;15.80;100.00;100976.44;6086782;23;20082;-68
2023/07/20 04:47:13;;;;;;;5.68;5.30;;;;;;;15.81;100.00;100956.94;6114914;23;20031;-68
2023/07/20 04:49:40;;;;;;;5.90;5.40;;;;;;;15.98;100.00;100967.19;6106358;23;20633;-66
2023/07/20 04:52:06;;;;;;;6.88;6.28;;;;;;;16.01;100.00;100960.84;6112227;23;20523;-68
2023/07/20 04:54:34;;;;;;;6.38;5.88;;;;;;;16.05;100.00;100964.97;6112644;23;20828;-67
2023/07/20 04:57:01;;;;;;;6.18;5.78;;;;;;;15.96;100.00;100937.34;6107250;23;20031;-69
2023/07/20 04:59:27;;;;;;;6.40;6.00;;;;;;;16.09;100.00;100958.50;6109533;23;20855;-68
2023/07/20 05:01:53;;;;;;;6.82;6.32;;;;;;;16.13;100.00;100963.44;6108103;23;20029;-70
2023/07/20 05:04:20;;;;;;;8.57;6.15;;;;;;;16.08;100.00;100964.75;6110761;23;20110;-69
2023/07/20 05:06:48;;;;;;;6.53;6.13;;;;;;;16.14;100.00;100977.56;6107946;23;20582;-68
2023/07/20 05:09:14;;;;;;;6.63;6.07;;;;;;;16.09;100.00;100959.31;6109603;23;20033;-68
2023/07/20 05:11:40;;;;;;;7.28;6.60;;;;;;;15.33;100.00;100818.25;6083971;23;20038;-68
2023/07/20 05:14:07;;;;;;;6.80;6.28;;;;;;;16.32;100.00;100967.44;6107960;23;20021;-69
2023/07/20 05:16:33;;;;;;;7.07;6.40;;;;;;;16.35;100.00;100970.69;6114952;23;20570;-68
2023/07/20 05:19:00;;;;;;;6.32;5.93;;;;;;;16.43;100.00;100996.63;6108675;23;20101;-68
2023/07/20 05:21:26;;;;;;;6.93;6.43;;;;;;;16.53;100.00;100972.97;6119375;23;20033;-69
2023/07/20 05:23:53;;;;;;;6.90;6.28;;;;;;;16.64;100.00;100967.75;6109955;23;20523;-69
2023/07/20 05:26:19;;;;;;;7.85;6.85;;;;;;;16.82;100.00;100960.28;6115591;23;20013;-68
2023/07/20 05:28:46;;;;;;;7.15;6.60;;;;;;;16.94;100.00;100939.97;6111324;23;20032;-68
2023/07/20 05:31:13;;;;;;;6.78;6.18;;;;;;;17.08;100.00;100915.91;6084238;23;20009;-68
2023/07/20 05:33:39;;;;;;;18.17;17.05;;;;;;;17.30;100.00;100924.88;6081800;23;20469;-69
2023/07/20 05:36:30;;;;;;;7.15;6.53;;;;;;;17.80;100.00;100932.47;6014238;23;20037;-69
2023/07/20 05:38:57;;;;;;;7.22;6.68;;;;;;;18.44;100.00;100915.88;6093368;23;20039;-67
2023/07/20 05:41:23;;;;;;;7.13;6.40;;;;;;;18.74;100.00;100889.41;6114222;23;20087;-68
2023/07/20 05:43:50;;;;;;;7.05;6.55;;;;;;;18.86;98.56;100825.56;6090617;23;20093;-67
2023/07/20 05:46:17;;;;;;;7.70;7.10;;;;;;;19.44;93.63;100843.63;6116332;23;20002;-67
2023/07/20 05:48:43;;;;;;;8.75;7.13;;;;;;;19.38;91.35;100822.88;6115000;23;20028;-70
2023/07/20 05:51:10;;;;;;;7.25;6.65;;;;;;;19.01;92.43;100828.75;6114015;23;20100;-68
2023/07/20 05:53:36;;;;;;;7.57;6.70;;;;;;;18.57;94.63;100844.78;6115719;23;20009;-67
2023/07/20 05:56:03;;;;;;;7.78;7.07;;;;;;;18.36;97.02;100857.19;6110040;23;20269;-69
2023/07/20 05:58:29;;;;;;;7.80;7.07;;;;;;;18.20;99.34;100873.53;6114362;23;20029;-69
2023/07/20 06:00:56;;;;;;;7.60;6.95;;;;;;;17.72;100.00;100825.13;6115082;23;20052;-69
2023/07/20 06:03:23;;;;;;;8.23;7.38;;;;;;;17.85;100.00;100896.69;6113951;23;20589;-69
2023/07/20 06:05:49;;;;;;;11.95;7.13;;;;;;;17.39;100.00;100814.53;6084936;23;20430;-69
2023/07/20 06:08:16;;;;;;;8.10;7.43;;;;;;;17.25;100.00;100828.88;6114284;23;20034;-67
2023/07/20 06:10:42;;;;;;;9.30;8.40;;;;;;;17.65;100.00;100911.50;6113631;23;20601;-69
2023/07/20 06:13:13;;;;;;;8.57;7.82;;;;;;;17.88;100.00;100912.38;6115953;23;20021;-69
2023/07/20 06:15:41;;;;;;;8.13;7.43;;;;;;;18.04;100.00;100917.31;6117317;23;20369;-69
2023/07/20 06:18:07;;;;;;;8.52;7.32;;;;;;;17.93;100.00;100859.72;6105254;23;20104;-67
2023/07/20 06:20:33;;;;;;;8.20;7.38;;;;;;;18.24;100.00;100885.59;6115582;23;20028;-67
2023/07/20 06:23:00;;;;;;;9.30;8.50;;;;;;;18.57;100.00;100905.91;6110856;23;20429;-68
2023/07/20 06:25:27;;;;;;;9.35;7.90;;;;;;;18.59;98.44;100889.84;6116012;23;20267;-67
2023/07/20 06:27:55;;;;;;;13.18;8.45;;;;;;;18.49;98.63;100889.78;6112108;23;20013;-67
2023/07/20 06:30:22;;;;;;;8.30;7.43;;;;;;;18.65;98.52;100884.88;6114343;23;20034;-68
2023/07/20 06:32:48;;;;;;;13.10;8.15;;;;;;;18.61;95.90;100827.59;6089231;23;20760;-68
2023/07/20 06:35:15;;;;;;;9.35;8.35;;;;;;;19.06;94.43;100827.38;6109169;23;20061;-69
2023/07/20 06:37:42;;;;;;;9.15;8.25;;;;;;;19.57;91.29;100838.09;6093086;23;20027;-68
2023/07/20 06:40:09;;;;;;;8.52;7.70;;;;;;;19.32;89.87;100776.34;6114038;23;20587;-69
2023/07/20 06:42:38;;;;;;;12.55;7.82;;;;;;;19.60;87.88;100814.69;6113758;23;20078;-68
2023/07/20 06:45:08;;;;;;;9.43;8.52;;;;;;;19.84;87.77;100822.34;6112633;23;20044;-68
2023/07/20 06:47:35;;;;;;;9.45;8.60;;;;;;;19.16;87.27;100731.63;6112517;23;20025;-68
2023/07/20 06:50:01;;;;;;;9.43;8.27;;;;;;;19.33;88.88;100817.97;6108334;23;20113;-68
2023/07/20 06:52:28;;;;;;;8.18;7.43;;;;;;;19.27;89.09;100808.69;6115224;23;20499;-68
2023/07/20 06:54:55;;;;;;;8.35;7.65;;;;;;;19.30;89.29;100827.06;6111090;23;20075;-68
2023/07/20 06:57:21;;;;;;;8.85;8.20;;;;;;;19.29;89.37;100797.94;6111386;23;20193;-68
2023/07/20 06:59:53;;;;;;;8.70;7.80;;;;;;;19.65;87.54;100814.28;6109478;23;20005;-68
2023/07/20 07:02:19;;;;;;;8.27;7.50;;;;;;;20.27;85.62;100823.81;6114872;23;20064;-68
2023/07/20 07:04:46;;;;;;;7.68;7.00;;;;;;;20.61;82.75;100775.41;6088107;23;20686;-68
2023/07/20 07:07:14;;;;;;;8.05;7.32;;;;;;;20.96;79.01;100757.06;6083049;23;20048;-68
2023/07/20 07:09:51;;;;;;;8.13;7.40;;;;;;;21.12;76.59;100731.41;6115017;23;20030;-68
2023/07/20 07:12:18;;;;;;;7.75;7.13;;;;;;;20.61;77.22;100721.25;6115992;23;20115;-68
2023/07/20 07:14:44;;;;;;;8.38;7.75;;;;;;;20.21;76.46;100698.28;6101301;23;20036;-68
2023/07/20 07:17:11;;;;;;;8.23;7.53;;;;;;;19.57;78.04;100676.53;6112101;23;20040;-68
2023/07/20 07:19:38;;;;;;;7.50;6.90;;;;;;;19.52;79.65;100732.00;6115357;23;20021;-68
2023/07/20 07:22:04;;;;;;;8.13;7.30;;;;;;;19.49;80.77;100757.09;6110399;23;20029;-69
2023/07/20 07:24:33;;;;;;;7.32;6.60;;;;;;;19.70;80.21;100751.66;6115674;23;20051;-68
2023/07/20 07:27:01;;;;;;;6.85;6.30;;;;;;;19.99;77.54;100724.25;6108856;23;20033;-68
2023/07/20 07:29:28;;;;;;;6.82;6.40;;;;;;;20.41;75.07;100699.09;6060600;23;20097;-68
2023/07/20 07:31:55;;;;;;;6.00;5.70;;;;;;;20.47;72.62;100666.53;6111304;23;20105;-68
2023/07/20 07:34:21;;;;;;;6.30;5.80;;;;;;;20.15;71.78;100635.75;6125695;23;20539;-68
2023/07/20 07:36:48;;;;;;;6.38;5.97;;;;;;;19.91;72.02;100602.41;6121507;23;20130;-68
2023/07/20 07:39:17;;;;;;;6.32;5.93;;;;;;;19.85;71.17;100581.69;6087228;23;20330;-68
2023/07/20 07:41:46;;;;;;;6.20;5.77;;;;;;;20.16;70.41;100612.59;6113014;23;20045;-68
2023/07/20 07:44:13;;;;;;;6.53;6.03;;;;;;;19.40;68.94;100433.22;6094350;23;20302;-68
2023/07/20 07:46:39;;;;;;;6.93;6.07;;;;;;;19.97;68.21;100506.94;6110938;23;20080;-68
2023/07/20 07:49:06;;;;;;;6.78;6.22;;;;;;;20.64;68.00;100595.59;6111851;23;20036;-68
2023/07/20 07:51:32;;;;;;;6.35;5.95;;;;;;;20.93;67.04;100582.13;6084957;23;20018;-68
2023/07/20 07:53:59;;;;;;;6.22;5.82;;;;;;;21.43;66.70;100600.31;6113749;23;20119;-68
2023/07/20 07:56:25;;;;;;;7.05;6.40;;;;;;;21.31;66.26;100593.50;6112430;23;20029;-68
2023/07/20 07:58:52;;;;;;;6.97;6.30;;;;;;;21.09;66.45;100571.59;6113093;23;20473;-68
2023/07/20 08:01:18;;;;;;;6.45;6.05;;;;;;;20.72;67.14;100551.19;6110910;23;20080;-68
2023/07/20 08:03:47;;;;;;;6.47;5.95;;;;;;;20.31;68.01;100555.19;6115895;23;20191;-69
2023/07/20 08:06:14;;;;;;;6.22;5.85;;;;;;;20.15;68.16;100566.47;6107890;23;20071;-68
2023/07/20 08:08:40;;;;;;;6.57;6.00;;;;;;;20.03;68.73;100567.63;6091097;23;20033;-68
2023/07/20 08:11:07;;;;;;;6.60;6.10;;;;;;;19.85;68.95;100563.03;6097207;23;20391;-67
2023/07/20 08:13:34;;;;;;;6.38;5.97;;;;;;;20.46;69.15;100656.81;6106819;23;20037;-68
2023/07/20 08:16:02;;;;;;;5.93;5.63;;;;;;;21.37;66.41;100640.94;6109668;23;20033;-69
2023/07/20 08:18:29;;;;;;;6.47;6.07;;;;;;;21.33;62.96;100458.06;6077643;23;20022;-68
2023/07/20 08:20:55;;;;;;;6.93;6.43;;;;;;;21.80;62.38;100540.50;6084388;23;20026;-69
2023/07/20 08:23:22;;;;;;;5.97;5.57;;;;;;;21.46;63.39;100548.44;6093942;23;20979;-68
2023/07/20 08:25:48;;;;;;;6.13;5.72;;;;;;;21.21;62.39;100485.97;6077957;23;20048;-69
2023/07/20 08:28:15;;;;;;;6.72;6.22;;;;;;;20.82;64.51;100504.97;6109254;23;20033;-69
2023/07/20 08:30:44;;;;;;;6.50;6.07;;;;;;;21.55;63.21;100550.19;6079951;23;20025;-69
2023/07/20 08:33:13;;;;;;;6.47;5.95;;;;;;;21.64;62.95;100521.72;6109265;23;20034;-68
2023/07/20 08:35:40;;;;;;;6.10;5.80;;;;;;;21.86;61.26;100488.28;6110177;23;20366;-68
2023/07/20 08:38:07;;;;;;;6.32;5.85;;;;;;;21.52;61.05;100503.25;6111269;23;20084;-67
2023/07/20 08:40:39;;;;;;;5.88;5.47;;;;;;;22.09;59.92;100523.28;6084464;23;20026;-68
2023/07/20 08:43:06;;;;;;;6.38;5.93;;;;;;;21.31;58.56;100334.59;6082621;23;20030;-68
2023/07/20 08:45:34;;;;;;;6.25;5.90;;;;;;;22.12;58.91;100498.94;6111544;23;20043;-68
2023/07/20 08:48:03;;;;;;;6.28;5.78;;;;;;;22.33;56.73;100442.41;6110125;23;20026;-68
2023/07/20 08:50:30;;;;;;;6.38;5.78;;;;;;;22.10;54.98;100333.38;6099427;23;20017;-68
2023/07/20 08:52:58;;;;;;;5.65;5.35;;;;;;;22.67;55.22;100418.25;6109078;23;20098;-69
2023/07/20 08:55:29;;;;;;;6.30;5.90;;;;;;;22.84;53.62;100394.16;6080568;23;21411;-69
2023/07/20 08:57:57;;;;;;;5.60;5.30;;;;;;;22.64;54.71;100397.16;6109752;23;20041;-69
2023/07/20 09:00:24;;;;;;;6.00;5.55;;;;;;;22.37;54.08;100357.34;6110424;23;20029;-68
2023/07/20 09:02:53;;;;;;;5.55;5.25;;;;;;;22.34;55.04;100432.56;6107808;23;20128;-69
2023/07/20 09:05:23;;;;;;;6.15;5.75;;;;;;;20.94;58.57;100453.06;6109884;23;20083;-69
2023/07/20 09:07:52;;;;;;;7.85;5.50;;;;;;;21.44;58.86;100555.78;6111406;23;20014;-69
2023/07/20 09:10:23;;;;;;;6.28;5.82;;;;;;;22.06;59.56;100636.72;6092003;23;20036;-69
2023/07/20 09:12:51;;;;;;;6.40;5.90;;;;;;;21.58;59.30;100565.88;6076222;23;20045;-68
2023/07/20 09:15:19;;;;;;;5.80;5.50;;;;;;;21.88;58.61;100577.97;6108995;23;20044;-69
2023/07/20 09:17:48;;;;;;;6.00;5.60;;;;;;;22.14;58.58;100581.63;6078216;23;20650;-69
2023/07/20 09:20:19;;;;;;;5.72;5.43;;;;;;;21.72;57.58;100513.75;6109487;23;20045;-69
2023/07/20 09:22:52;;;;;;;6.00;5.60;;;;;;;22.50;56.60;100577.84;6106018;23;20055;-68
2023/07/20 09:25:22;;;;;;;5.82;5.50;;;;;;;22.32;53.62;100413.16;6110079;23;20633;-69
2023/07/20 09:27:50;;;;;;;5.85;5.50;;;;;;;22.75;51.39;100379.09;6109822;23;20053;-70
2023/07/20 09:30:18;;;;;;;5.60;5.30;;;;;;;23.00;50.67;100361.22;6108337;23;20033;-70
2023/07/20 09:32:47;;;;;;;5.80;5.50;;;;;;;22.66;51.79;100370.25;6087789;23;20052;-68
2023/07/20 09:35:21;;;;;;;5.80;5.50;;;;;;;22.73;51.55;100407.88;6106878;23;20457;-68
2023/07/20 09:37:54;;;;;;;5.60;5.30;;;;;;;22.06;52.15;100374.81;6106554;23;20046;-69
2023/07/20 09:40:41;;;;;;;5.80;5.50;;;;;;;21.82;53.99;100428.97;6108875;23;20626;-70
2023/07/20 09:43:11;;;;;;;5.55;5.25;;;;;;;21.45;54.97;100459.50;6084772;23;20093;-69
2023/07/20 09:45:41;;;;;;;5.60;5.30;;;;;;;21.49;55.57;100500.09;6097954;23;20047;-71
2023/07/20 09:48:12;;;;;;;5.22;5.03;;;;;;;22.24;54.80;100559.16;6105454;23;20090;-70
2023/07/20 09:50:48;;;;;;;5.43;5.13;;;;;;;22.95;52.93;100526.78;6101382;23;20093;-69
2023/07/20 09:53:14;;;;;;;5.65;5.32;;;;;;;23.43;51.55;100539.44;6104203;23;20021;-70
2023/07/20 09:55:42;;;;;;;5.50;5.20;;;;;;;23.06;49.59;100358.72;6112394;23;20024;-68
2023/07/20 09:58:09;;;;;;;5.25;5.05;;;;;;;22.57;50.58;100353.38;6099004;23;20025;-68
2023/07/20 10:00:38;;;;;;;5.95;5.65;;;;;;;22.49;51.77;100428.22;6105907;23;20089;-70
2023/07/20 10:03:09;;;;;;;5.63;5.32;;;;;;;22.81;51.45;100445.31;6080805;23;20484;-68
2023/07/20 10:05:37;;;;;;;5.55;5.25;;;;;;;23.17;50.62;100479.81;6108522;23;20051;-68
2023/07/20 10:08:06;;;;;;;5.70;5.40;;;;;;;22.41;48.33;100223.19;6106730;23;20614;-68
2023/07/20 10:10:37;;;;;;;5.55;5.22;;;;;;;21.46;48.85;100154.13;6114852;23;20021;-67
2023/07/20 10:13:06;;;;;;;5.68;5.38;;;;;;;21.97;47.19;100187.91;6112934;23;21579;-68
2023/07/20 10:15:37;;;;;;;5.50;5.20;;;;;;;22.81;46.89;100303.53;6110779;23;20080;-68
2023/07/20 10:18:17;;;;;;;6.10;5.60;;;;;;;23.79;47.35;100481.94;6114215;23;20061;-68
2023/07/20 10:20:45;;;;;;;6.13;5.72;;;;;;;23.68;46.65;100351.84;6113911;23;20021;-68
2023/07/20 10:23:14;;;;;;;5.78;5.30;;;;;;;23.88;46.18;100322.81;6113205;23;20025;-69
2023/07/20 10:25:42;;;;;;;5.82;5.53;;;;;;;24.88;44.57;100368.38;6114736;23;20025;-68
2023/07/20 10:28:10;;;;;;;5.30;5.10;;;;;;;25.15;43.37;100338.41;6113410;23;20033;-68
2023/07/20 10:30:38;;;;;;;5.35;5.13;;;;;;;24.58;44.02;100276.22;6110388;23;20042;-68
2023/07/20 10:33:05;;;;;;;5.85;5.55;;;;;;;23.34;45.91;100286.03;6116568;23;20028;-69
2023/07/20 10:35:53;;;;;;;5.70;5.40;;;;;;;23.29;46.97;100358.84;6114680;23;20596;-68
2023/07/20 10:38:41;;;;;;;5.63;5.32;;;;;;;22.96;47.38;100336.63;6084336;23;20103;-69
2023/07/20 10:41:39;;;;;;;11.70;5.97;;;;;;;22.55;47.63;100320.63;6111246;23;20090;-69
2023/07/20 10:44:09;;;;;;;5.93;5.45;;;;;;;23.31;47.62;100398.81;6112589;23;20033;-68
2023/07/20 10:46:38;;;;;;;5.90;5.60;;;;;;;23.95;45.74;100384.56;6109735;23;20041;-68
2023/07/20 10:49:07;;;;;;;6.20;5.70;;;;;;;22.96;46.53;100267.03;6113690;23;20032;-68
2023/07/20 10:51:47;;;;;;;5.60;5.30;;;;;;;23.16;46.16;100322.91;6056313;23;20744;-68
2023/07/20 10:54:17;;;;;;;5.75;5.38;;;;;;;23.71;46.50;100367.56;6112811;23;20094;-68
2023/07/20 10:56:47;;;;;;;5.43;5.20;;;;;;;22.04;48.55;100274.44;6113929;23;20033;-70
2023/07/20 10:59:23;;;;;;;6.00;5.60;;;;;;;22.89;48.35;100430.13;6105164;23;20029;-70
2023/07/20 11:01:55;;;;;;;7.90;5.30;;;;;;;23.19;47.92;100413.56;6108688;23;20017;-68
2023/07/20 11:04:41;;;;;;;5.60;5.30;;;;;;;23.29;46.93;100407.03;6061593;23;20068;-68
2023/07/20 11:07:08;;;;;;;7.57;5.50;;;;;;;22.96;46.30;100296.47;6114997;23;20036;-69
2023/07/20 11:09:37;;;;;;;5.60;5.30;;;;;;;23.44;45.70;100369.66;6104007;23;20102;-68
2023/07/20 11:12:18;;;;;;;5.47;5.18;;;;;;;23.59;44.97;100345.66;6085141;23;20535;-68
2023/07/20 11:14:57;;;;;;;5.57;5.28;;;;;;;23.37;46.44;100389.28;6104799;23;20021;-69
2023/07/20 11:17:31;;;;;;;5.40;5.10;;;;;;;22.46;46.47;100284.16;6109943;23;20040;-68
2023/07/20 11:20:03;;;;;;;5.63;5.32;;;;;;;22.64;47.03;100337.50;6115561;23;20017;-68
2023/07/20 11:22:33;;;;;;;5.70;5.40;;;;;;;22.40;46.69;100344.50;6112536;23;20009;-69
2023/07/20 11:24:59;;;;;;;5.38;5.10;;;;;;;22.68;45.96;100366.41;6113395;23;20089;-68
2023/07/20 11:27:26;;;;;;;5.65;5.28;;;;;;;22.81;44.39;100288.31;6080032;23;20031;-69